createdAt,value
2022-12-13T00:05:02.262Z,3.45
2022-12-13T00:10:34.095Z,3.55
2022-12-13T00:16:05.759Z,3.60
2022-12-13T00:21:36.868Z,3.80
2022-12-13T00:27:08.204Z,3.85
2022-12-13T00:32:39.457Z,3.95
2022-12-13T00:38:11.015Z,4.00
2022-12-13T00:43:42.994Z,4.00
2022-12-13T00:49:14.373Z,4.05
2022-12-13T00:54:45.787Z,4.05
2022-12-13T01:00:17.233Z,4.20
2022-12-13T01:11:18.879Z,4.40
2022-12-13T01:16:50.955Z,4.45
2022-12-13T01:22:22.697Z,4.50
2022-12-13T01:27:54.420Z,4.60
2022-12-13T01:33:26.066Z,4.85
2022-12-13T01:38:59.089Z,4.90
2022-12-13T01:44:30.127Z,5.05
2022-12-13T01:50:02.122Z,5.25
2022-12-13T01:55:33.823Z,5.25
2022-12-13T02:01:05.608Z,5.35
2022-12-13T02:06:37.549Z,5.45
2022-12-13T02:12:09.833Z,5.45
2022-12-13T02:17:45.302Z,5.50
2022-12-13T02:28:43.915Z,5.65
2022-12-13T02:34:16.219Z,5.80
2022-12-13T02:39:48.170Z,6.05
2022-12-13T02:45:21.095Z,6.10
2022-12-13T02:50:57.726Z,6.15
2022-12-13T02:56:29.644Z,6.25
2022-12-13T03:02:10.184Z,6.40
2022-12-13T03:07:33.291Z,6.55
2022-12-13T03:13:05.175Z,6.65
2022-12-13T03:18:36.818Z,6.75
2022-12-13T03:24:08.463Z,6.80
2022-12-13T03:29:40.179Z,6.90
2022-12-13T03:35:22.289Z,7.00
2022-12-13T03:40:43.936Z,7.10
2022-12-13T03:46:15.665Z,7.20
2022-12-13T03:51:47.309Z,7.30
2022-12-13T03:57:19.296Z,7.45
2022-12-13T04:02:57.001Z,7.50
2022-12-13T04:14:00.307Z,7.70
2022-12-13T04:19:32.099Z,7.80
2022-12-13T04:25:03.983Z,8.00
2022-12-13T04:30:35.728Z,8.15
2022-12-13T04:36:07.447Z,8.20
2022-12-13T04:41:39.332Z,8.25
2022-12-13T04:47:11.140Z,8.30
2022-12-13T04:52:42.818Z,8.45
2022-12-13T04:58:18.393Z,8.60
2022-12-13T05:03:46.428Z,8.65
2022-12-13T05:09:18.258Z,8.75
2022-12-13T05:20:19.798Z,8.85
2022-12-13T05:25:52.062Z,8.95
2022-12-13T05:31:24.505Z,9.05
2022-12-13T05:36:56.587Z,9.10
2022-12-13T05:42:28.407Z,9.20
2022-12-13T05:48:00.580Z,9.35
2022-12-13T05:53:32.545Z,9.45
2022-12-13T05:59:04.651Z,9.45
2022-12-13T06:04:36.352Z,9.70
2022-12-13T06:10:10.069Z,9.85
2022-12-13T06:15:44.649Z,10.05
2022-12-13T06:21:12.201Z,10.10
2022-12-13T06:26:45.124Z,10.15
2022-12-13T06:32:16.494Z,10.20
2022-12-13T06:37:48.441Z,10.20
2022-12-13T06:43:19.930Z,10.35
2022-12-13T06:48:51.766Z,10.45
2022-12-13T06:54:23.657Z,10.55
2022-12-13T06:59:55.684Z,10.65
2022-12-13T07:05:27.555Z,10.65
2022-12-13T07:10:59.743Z,10.70
2022-12-13T07:16:32.089Z,10.75
2022-12-13T07:22:04.071Z,10.85
2022-12-13T07:27:36.333Z,10.85
2022-12-13T07:33:08.611Z,10.90
2022-12-13T07:38:40.978Z,11.05
2022-12-13T07:44:13.023Z,11.20
2022-12-13T07:49:45.166Z,11.30
2022-12-13T07:55:17.274Z,11.40
2022-12-13T08:00:49.404Z,11.50
2022-12-13T08:06:21.296Z,11.50
2022-12-13T08:11:53.237Z,11.70
2022-12-13T08:17:28.423Z,11.80
2022-12-13T08:23:02.995Z,11.85
2022-12-13T08:27:49.347Z,1.97
2022-12-13T08:33:22.093Z,0.98
2022-12-13T08:38:53.815Z,0.66
2022-12-13T08:44:25.918Z,0.49
2022-12-13T08:50:03.058Z,0.39
2022-12-13T08:55:32.373Z,0.65
2022-12-13T09:01:01.505Z,0.84
2022-12-13T09:12:03.352Z,1.09
2022-12-13T09:17:37.000Z,1.27
2022-12-13T09:23:08.074Z,1.25
2022-12-13T09:28:40.381Z,1.39
2022-12-13T09:34:12.377Z,1.43
2022-12-13T09:39:44.147Z,1.54
2022-12-13T09:45:22.463Z,1.50
2022-12-13T09:50:58.269Z,1.53
2022-12-13T09:56:19.701Z,1.67
2022-12-13T10:01:51.928Z,1.74
2022-12-13T10:07:23.515Z,1.75
2022-12-13T10:12:55.275Z,1.90
2022-12-13T10:18:27.416Z,2.15
2022-12-13T10:24:24.113Z,2.35
2022-12-13T10:29:31.251Z,2.35
2022-12-13T10:35:02.839Z,2.40
2022-12-13T10:48:24.639Z,0.00
2022-12-13T10:53:56.603Z,0.99
2022-12-13T10:59:27.718Z,1.32
2022-12-13T11:04:59.676Z,1.23
2022-12-13T11:10:31.330Z,1.57
2022-12-13T11:16:03.185Z,1.31
2022-12-13T11:21:35.031Z,1.68
2022-12-13T11:27:06.803Z,2.21
2022-12-13T11:32:38.169Z,2.18
2022-12-13T11:38:10.071Z,2.16
2022-12-13T11:46:03.109Z,1.00
2022-12-13T11:51:34.692Z,0.49
2022-12-13T11:57:06.345Z,1.64
2022-12-13T12:02:38.393Z,1.72
2022-12-13T12:19:11.780Z,1.54
2022-12-13T12:24:43.102Z,1.47
2022-12-13T12:30:23.713Z,1.42
2022-12-13T12:35:46.807Z,1.47
2022-12-13T12:41:18.159Z,1.61
2022-12-13T12:47:18.956Z,1.55
2022-12-13T12:52:22.085Z,1.81
2022-12-13T12:57:53.929Z,1.68
2022-12-13T13:03:26.258Z,1.83
2022-12-13T13:14:27.051Z,1.96
2022-12-13T13:20:09.592Z,2.07
2022-12-13T13:25:31.016Z,1.96
2022-12-13T13:36:32.352Z,2.20
2022-12-13T13:42:04.342Z,2.35
2022-12-13T13:47:36.073Z,2.40
2022-12-13T13:53:07.743Z,2.40
2022-12-13T13:58:39.284Z,2.70
2022-12-13T14:04:11.129Z,2.95
2022-12-13T14:09:43.032Z,3.00
2022-12-13T14:15:14.704Z,3.10
2022-12-13T14:20:48.006Z,3.10
2022-12-13T14:26:19.652Z,3.20
2022-12-13T14:31:51.451Z,3.20
2022-12-13T14:37:23.189Z,3.35
2022-12-13T14:42:54.749Z,3.35
2022-12-13T14:48:28.593Z,3.55
2022-12-13T14:53:58.007Z,3.65
2022-12-13T14:59:29.893Z,3.70
2022-12-13T15:05:01.603Z,3.75
2022-12-13T15:10:33.406Z,3.90
2022-12-13T15:16:10.347Z,4.00
2022-12-13T15:21:37.102Z,4.00
2022-12-13T15:27:09.583Z,4.10
2022-12-13T15:32:41.341Z,4.20
2022-12-13T15:38:13.149Z,4.20
2022-12-13T15:43:45.239Z,4.35
2022-12-13T15:54:46.620Z,4.50
2022-12-13T16:00:18.604Z,4.65
2022-12-13T16:05:50.712Z,4.65
2022-12-13T16:11:22.393Z,4.70
2022-12-13T16:16:55.309Z,4.75
2022-12-13T16:22:28.158Z,4.85
2022-12-13T16:28:00.254Z,4.90
2022-12-13T16:33:32.791Z,5.05
2022-12-13T16:39:03.806Z,5.15
2022-12-13T16:44:36.030Z,5.15
2022-12-13T16:50:07.429Z,5.15
2022-12-13T16:55:39.597Z,5.30
2022-12-13T17:01:11.345Z,5.45
2022-12-13T17:06:43.185Z,5.45
2022-12-13T17:12:15.221Z,5.50
2022-12-13T17:17:47.278Z,5.55
2022-12-13T17:23:19.179Z,5.65
2022-12-13T17:28:51.249Z,5.70
2022-12-13T17:34:23.070Z,5.80
2022-12-13T17:39:54.846Z,6.00
2022-12-13T17:45:26.433Z,6.05
2022-12-13T17:50:58.519Z,6.10
2022-12-13T17:56:30.330Z,6.10
2022-12-13T18:02:02.175Z,6.15
2022-12-13T18:07:33.910Z,6.15
2022-12-13T18:13:05.483Z,6.35
2022-12-13T18:18:37.597Z,6.55
2022-12-13T18:24:10.083Z,6.70
2022-12-13T18:29:48.003Z,6.75
2022-12-13T18:35:19.938Z,6.95
2022-12-13T18:40:52.115Z,7.00
2022-12-13T18:46:23.913Z,7.15
2022-12-13T18:51:55.821Z,7.30
2022-12-13T18:57:27.280Z,7.30
2022-12-13T19:02:59.337Z,7.35
2022-12-13T19:08:31.207Z,7.35
2022-12-13T19:14:03.368Z,7.40
2022-12-13T19:19:35.660Z,7.50
2022-12-13T19:25:07.394Z,7.50
2022-12-13T19:30:39.275Z,7.60
2022-12-13T19:36:10.696Z,7.65
2022-12-13T19:41:42.402Z,7.80
2022-12-13T19:47:13.691Z,7.80
2022-12-13T19:52:45.475Z,7.85
2022-12-13T19:58:17.397Z,8.00
2022-12-13T20:03:49.292Z,8.10
2022-12-13T20:09:21.296Z,8.20
2022-12-13T20:14:53.040Z,8.30
2022-12-13T20:20:31.488Z,8.45
2022-12-13T20:25:56.561Z,8.50
2022-12-13T20:31:28.522Z,8.65
2022-12-13T20:39:21.532Z,1.00
2022-12-13T20:44:53.378Z,0.99
2022-12-13T20:50:25.475Z,1.31
2022-12-13T20:55:56.791Z,1.23
2022-12-13T21:01:28.608Z,1.38
2022-12-13T21:07:00.495Z,1.47
2022-12-13T21:12:31.934Z,1.40
2022-12-13T21:18:03.774Z,1.47
2022-12-13T21:23:35.800Z,1.52
2022-12-13T21:29:07.238Z,1.67
2022-12-13T21:34:39.210Z,1.61
2022-12-13T21:40:11.395Z,1.80
2022-12-13T21:45:43.541Z,1.73
2022-12-13T21:51:15.245Z,1.68
2022-12-13T21:56:46.866Z,1.63
2022-12-13T22:02:19.827Z,1.71
2022-12-13T22:07:51.520Z,1.84
2022-12-13T22:13:23.195Z,1.91
2022-12-13T22:18:55.169Z,1.91
2022-12-13T22:24:26.663Z,1.95
2022-12-13T22:29:58.630Z,2.00
2022-12-13T22:46:29.297Z,2.20
2022-12-13T22:52:00.960Z,2.20
2022-12-13T22:57:33.172Z,2.35
2022-12-13T23:03:05.309Z,2.50
2022-12-13T23:14:06.274Z,2.55
2022-12-13T23:19:50.902Z,2.55
2022-12-13T23:25:10.222Z,2.70
2022-12-13T23:30:42.291Z,2.70
2022-12-13T23:36:14.399Z,2.75
2022-12-13T23:41:45.931Z,2.90
2022-12-13T23:52:47.297Z,3.15
2022-12-13T23:58:18.951Z,3.20
